Time,TemperatureF,DewpointF,PressureIn,WindDirection,WindDirectionDegrees,WindSpeedMPH,WindSpeedGustMPH,Humidity,HourlyPrecipIn,Conditions,Clouds,dailyrainin,SoftwareType,DateUTC
2013-07-12 00:01:00,62.0,56.0,30.06,NE,48,0.0,0.0,82,0.00,,,0.00,,2013-07-12 04:01:00,
2013-07-12 00:11:00,61.0,56.0,30.06,NE,48,0.0,0.0,83,0.00,,,0.00,,2013-07-12 04:11:00,
2013-07-12 00:22:00,61.0,56.0,30.06,NE,48,0.0,0.0,83,0.00,,,0.00,,2013-07-12 04:22:00,
2013-07-12 00:32:00,61.0,56.0,30.06,NE,48,0.0,0.0,83,0.00,,,0.00,,2013-07-12 04:32:00,
2013-07-12 00:43:00,59.0,54.0,30.06,NE,48,0.0,0.0,83,0.00,,,0.00,,2013-07-12 04:43:00,
2013-07-12 00:53:00,59.0,54.0,30.06,NE,48,0.0,0.0,83,0.00,,,0.00,,2013-07-12 04:53:00,
2013-07-12 01:02:00,58.0,54.0,30.07,NE,48,0.0,1.0,87,0.00,,,0.00,,2013-07-12 05:02:00,
2013-07-12 01:11:00,59.0,55.0,30.07,NE,48,0.0,0.0,86,0.00,,,0.00,,2013-07-12 05:11:00,
2013-07-12 01:22:00,59.0,55.0,30.07,NE,48,0.0,0.0,86,0.00,,,0.00,,2013-07-12 05:22:00,
2013-07-12 01:32:00,59.0,55.0,30.07,NE,48,0.0,1.0,86,0.00,,,0.00,,2013-07-12 05:32:00,
2013-07-12 01:53:00,59.0,54.0,30.07,NE,48,0.0,1.0,85,0.00,,,0.00,,2013-07-12 05:53:00,
2013-07-12 02:01:00,59.0,54.0,30.07,NE,48,0.0,1.0,84,0.00,,,0.00,,2013-07-12 06:01:00,
2013-07-12 02:11:00,59.0,54.0,30.08,NE,48,0.0,1.0,85,0.00,,,0.00,,2013-07-12 06:11:00,
2013-07-12 02:22:00,59.0,54.0,30.08,NE,48,0.0,1.0,85,0.00,,,0.00,,2013-07-12 06:22:00,
2013-07-12 02:33:00,58.0,54.0,30.08,NE,48,0.0,0.0,85,0.00,,,0.00,,2013-07-12 06:33:00,
2013-07-12 02:52:00,58.0,54.0,30.08,NE,48,0.0,2.0,87,0.00,,,0.00,,2013-07-12 06:52:00,
2013-07-12 03:02:00,59.0,55.0,30.08,NE,48,0.0,1.0,86,0.00,,,0.00,,2013-07-12 07:02:00,
2013-07-12 03:12:00,58.0,54.0,30.08,NE,48,0.0,0.0,85,0.00,,,0.00,,2013-07-12 07:12:00,
2013-07-12 03:22:00,58.0,54.0,30.08,NE,48,0.0,0.0,85,0.00,,,0.00,,2013-07-12 07:22:00,
2013-07-12 03:32:00,55.0,51.0,30.08,NE,48,0.0,0.0,86,0.00,,,0.00,,2013-07-12 07:32:00,
2013-07-12 03:43:00,54.0,51.0,30.08,NE,48,0.0,0.0,90,0.00,,,0.00,,2013-07-12 07:43:00,
2013-07-12 03:52:00,54.0,51.0,30.08,NE,48,0.0,0.0,90,0.00,,,0.00,,2013-07-12 07:52:00,
2013-07-12 04:01:00,54.0,51.0,30.08,NE,48,0.0,0.0,91,0.00,,,0.00,,2013-07-12 08:01:00,
2013-07-12 04:21:00,54.0,52.0,30.08,NE,48,0.0,0.0,92,0.00,,,0.00,,2013-07-12 08:21:00,
2013-07-12 04:32:00,55.0,53.0,30.08,NE,48,0.0,0.0,93,0.00,,,0.00,,2013-07-12 08:32:00,
2013-07-12 04:42:00,55.0,53.0,30.09,NE,48,0.0,0.0,93,0.00,,,0.00,,2013-07-12 08:42:00,
2013-07-12 04:53:00,55.0,53.0,30.09,NE,48,0.0,0.0,93,0.00,,,0.00,,2013-07-12 08:53:00,
2013-07-12 05:02:00,55.0,53.0,30.09,NE,48,0.0,0.0,93,0.00,,,0.00,,2013-07-12 09:02:00,
2013-07-12 05:12:00,55.0,53.0,30.09,NE,48,0.0,0.0,93,0.00,,,0.00,,2013-07-12 09:12:00,
2013-07-12 05:22:00,55.0,53.0,30.10,NE,48,0.0,0.0,93,0.00,,,0.00,,2013-07-12 09:22:00,
2013-07-12 05:32:00,55.0,53.0,30.10,NE,48,0.0,0.0,93,0.00,,,0.00,,2013-07-12 09:32:00,
2013-07-12 05:43:00,55.0,53.0,30.11,NE,48,0.0,0.0,93,0.00,,,0.00,,2013-07-12 09:43:00,
2013-07-12 05:52:00,55.0,53.0,30.11,NE,48,0.0,0.0,93,0.00,,,0.00,,2013-07-12 09:52:00,
2013-07-12 06:01:00,55.0,53.0,30.11,NE,48,0.0,0.0,93,0.00,,,0.00,,2013-07-12 10:01:00,
2013-07-12 06:11:00,55.0,53.0,30.11,NE,48,0.0,0.0,93,0.00,,,0.00,,2013-07-12 10:11:00,
2013-07-12 06:22:00,55.0,53.0,30.11,NE,48,0.0,0.0,93,0.00,,,0.00,,2013-07-12 10:22:00,
2013-07-12 06:33:00,55.0,53.0,30.11,NE,48,0.0,0.0,94,0.00,,,0.00,,2013-07-12 10:33:00,
2013-07-12 06:42:00,55.0,53.0,30.11,NE,48,0.0,0.0,94,0.00,,,0.00,,2013-07-12 10:42:00,
2013-07-12 06:52:00,55.0,53.0,30.11,NE,48,0.0,0.0,94,0.00,,,0.00,,2013-07-12 10:52:00,
2013-07-12 07:02:00,55.0,53.0,30.11,NE,48,0.0,0.0,94,0.00,,,0.00,,2013-07-12 11:02:00,
2013-07-12 07:12:00,55.0,53.0,30.11,NE,48,0.0,2.0,94,0.00,,,0.00,,2013-07-12 11:12:00,
2013-07-12 07:22:00,55.0,53.0,30.11,NE,48,0.0,2.0,94,0.00,,,0.00,,2013-07-12 11:22:00,
2013-07-12 07:32:00,55.0,53.0,30.11,NE,48,0.0,1.0,94,0.00,,,0.00,,2013-07-12 11:32:00,
2013-07-12 07:43:00,56.0,55.0,30.11,NE,48,0.0,1.0,95,0.00,,,0.00,,2013-07-12 11:43:00,
2013-07-12 07:52:00,56.0,55.0,30.11,NE,48,0.0,1.0,95,0.00,,,0.00,,2013-07-12 11:52:00,
2013-07-12 08:02:00,58.0,56.0,30.11,NE,48,0.0,1.0,92,0.00,,,0.00,,2013-07-12 12:02:00,
2013-07-12 08:11:00,58.0,56.0,30.11,NE,48,0.0,1.0,92,0.00,,,0.00,,2013-07-12 12:11:00,
2013-07-12 08:22:00,58.0,56.0,30.11,NE,48,0.0,1.0,92,0.00,,,0.00,,2013-07-12 12:22:00,
2013-07-12 08:32:00,62.0,58.0,30.11,NE,48,0.0,2.0,87,0.00,,,0.00,,2013-07-12 12:32:00,
2013-07-12 08:53:00,64.0,60.0,30.12,NNE,17,0.0,2.0,86,0.00,,,0.00,,2013-07-12 12:53:00,
2013-07-12 09:43:00,67.0,60.0,30.13,ENE,60,3.0,7.0,78,0.00,,,0.00,,2013-07-12 13:43:00,
2013-07-12 09:53:00,67.0,60.0,30.13,ENE,60,3.0,7.0,78,0.00,,,0.00,,2013-07-12 13:53:00,
2013-07-12 10:02:00,69.0,61.0,30.13,ENE,59,2.0,5.0,77,0.00,,,0.00,,2013-07-12 14:02:00,
2013-07-12 10:11:00,69.0,61.0,30.13,ENE,59,2.0,5.0,77,0.00,,,0.00,,2013-07-12 14:11:00,
2013-07-12 10:22:00,69.0,61.0,30.13,ENE,59,2.0,5.0,77,0.00,,,0.00,,2013-07-12 14:22:00,
2013-07-12 10:32:00,71.0,63.0,30.11,ESE,113,1.0,5.0,75,0.00,,,0.00,,2013-07-12 14:32:00,
2013-07-12 10:44:00,72.0,62.0,30.11,ENE,59,2.0,5.0,72,0.00,,,0.00,,2013-07-12 14:44:00,
2013-07-12 10:53:00,72.0,62.0,30.11,ENE,59,2.0,5.0,72,0.00,,,0.00,,2013-07-12 14:53:00,
2013-07-12 11:02:00,73.0,63.0,30.12,ENE,76,0.0,7.0,71,0.00,,,0.00,,2013-07-12 15:02:00,
2013-07-12 11:11:00,74.0,62.0,30.12,ENE,72,3.0,8.0,66,0.00,,,0.00,,2013-07-12 15:11:00,
2013-07-12 11:22:00,74.0,62.0,30.12,ENE,72,3.0,8.0,66,0.00,,,0.00,,2013-07-12 15:22:00,
2013-07-12 11:33:00,74.0,61.0,30.12,ENE,61,2.0,6.0,63,0.00,,,0.00,,2013-07-12 15:33:00,
2013-07-12 11:43:00,76.0,62.0,30.12,SE,137,0.0,3.0,62,0.00,,,0.00,,2013-07-12 15:43:00,
2013-07-12 11:53:00,76.0,62.0,30.12,SE,137,0.0,3.0,62,0.00,,,0.00,,2013-07-12 15:53:00,
2013-07-12 12:01:00,77.0,59.0,30.13,East,79,4.0,7.0,53,0.00,,,0.00,,2013-07-12 16:01:00,
2013-07-12 12:11:00,77.0,60.0,30.13,NE,40,2.0,9.0,55,0.00,,,0.00,,2013-07-12 16:11:00,
2013-07-12 12:22:00,77.0,60.0,30.13,NE,40,2.0,9.0,55,0.00,,,0.00,,2013-07-12 16:22:00,
2013-07-12 12:32:00,77.0,58.0,30.12,ENE,68,2.0,9.0,52,0.00,,,0.00,,2013-07-12 16:32:00,
2013-07-12 12:43:00,77.0,58.0,30.12,ENE,68,2.0,9.0,52,0.00,,,0.00,,2013-07-12 16:43:00,
2013-07-12 12:58:00,77.0,58.0,30.12,ENE,68,2.0,9.0,52,0.00,,,0.00,,2013-07-12 16:58:00,
2013-07-12 13:05:00,78.0,56.0,30.12,East,86,3.0,8.0,46,0.00,,,0.00,,2013-07-12 17:05:00,
2013-07-12 13:14:00,78.0,56.0,30.12,ENE,64,3.0,7.0,47,0.00,,,0.00,,2013-07-12 17:14:00,
2013-07-12 13:24:00,78.0,56.0,30.12,ENE,64,3.0,7.0,47,0.00,,,0.00,,2013-07-12 17:24:00,
2013-07-12 13:37:00,78.0,57.0,30.11,ENE,69,3.0,8.0,48,0.00,,,0.00,,2013-07-12 17:37:00,
2013-07-12 13:45:00,78.0,57.0,30.11,ENE,69,3.0,8.0,48,0.00,,,0.00,,2013-07-12 17:45:00,
2013-07-12 14:06:00,79.0,57.0,30.11,NE,36,1.0,7.0,47,0.00,,,0.00,,2013-07-12 18:06:00,
2013-07-12 14:14:00,79.0,57.0,30.11,NE,36,1.0,7.0,47,0.00,,,0.00,,2013-07-12 18:14:00,
2013-07-12 14:34:00,79.0,57.0,30.11,East,80,3.0,7.0,47,0.00,,,0.00,,2013-07-12 18:34:00,
2013-07-12 14:48:00,79.0,57.0,30.11,East,80,3.0,7.0,47,0.00,,,0.00,,2013-07-12 18:48:00,
2013-07-12 14:57:00,79.0,58.0,30.11,ENE,62,1.0,10.0,48,0.00,,,0.00,,2013-07-12 18:57:00,
2013-07-12 15:04:00,79.0,60.0,30.10,ESE,111,0.0,9.0,52,0.00,,,0.00,,2013-07-12 19:04:00,
2013-07-12 15:15:00,79.0,60.0,30.10,ESE,111,0.0,9.0,52,0.00,,,0.00,,2013-07-12 19:15:00,
2013-07-12 15:23:00,79.0,56.0,30.10,SE,128,3.0,9.0,45,0.00,,,0.00,,2013-07-12 19:23:00,
2013-07-12 15:33:00,80.0,58.0,30.10,NNE,27,1.0,6.0,47,0.00,,,0.00,,2013-07-12 19:33:00,
2013-07-12 15:45:00,80.0,58.0,30.10,NNE,27,1.0,6.0,47,0.00,,,0.00,,2013-07-12 19:45:00,
2013-07-12 16:02:00,81.0,59.0,30.09,ENE,76,4.0,8.0,48,0.00,,,0.00,,2013-07-12 20:02:00,
2013-07-12 16:13:00,81.0,59.0,30.09,ENE,76,4.0,8.0,48,0.00,,,0.00,,2013-07-12 20:13:00,
2013-07-12 16:24:00,80.0,57.0,30.09,NE,55,3.0,9.0,46,0.00,,,0.00,,2013-07-12 20:24:00,
2013-07-12 16:33:00,81.0,57.0,30.09,NE,34,2.0,7.0,44,0.00,,,0.00,,2013-07-12 20:33:00,
2013-07-12 16:55:00,81.0,57.0,30.09,ENE,58,2.0,8.0,44,0.00,,,0.00,,2013-07-12 20:55:00,
2013-07-12 17:03:00,81.0,57.0,30.08,SE,142,2.0,5.0,44,0.00,,,0.00,,2013-07-12 21:03:00,
2013-07-12 17:15:00,81.0,57.0,30.08,SE,142,2.0,5.0,44,0.00,,,0.00,,2013-07-12 21:15:00,
2013-07-12 17:25:00,81.0,59.0,30.08,NE,52,1.0,7.0,48,0.00,,,0.00,,2013-07-12 21:25:00,
2013-07-12 17:35:00,81.0,57.0,30.08,ENE,75,4.0,8.0,44,0.00,,,0.00,,2013-07-12 21:35:00,
2013-07-12 17:46:00,81.0,57.0,30.08,ENE,75,4.0,8.0,44,0.00,,,0.00,,2013-07-12 21:46:00,
2013-07-12 17:58:00,81.0,58.0,30.08,East,79,2.0,8.0,46,0.00,,,0.00,,2013-07-12 21:58:00,
2013-07-12 18:04:00,81.0,58.0,30.08,East,79,2.0,8.0,46,0.00,,,0.00,,2013-07-12 22:04:00,
2013-07-12 18:16:00,81.0,58.0,30.08,East,79,2.0,8.0,46,0.00,,,0.00,,2013-07-12 22:16:00,
2013-07-12 18:24:00,81.0,59.0,30.08,East,87,1.0,4.0,47,0.00,,,0.00,,2013-07-12 22:24:00,
2013-07-12 18:33:00,81.0,59.0,30.07,NE,55,1.0,7.0,48,0.00,,,0.00,,2013-07-12 22:33:00,
2013-07-12 18:56:00,81.0,58.0,30.07,ENE,69,3.0,7.0,45,0.00,,,0.00,,2013-07-12 22:56:00,
2013-07-12 19:03:00,81.0,59.0,30.07,ENE,67,3.0,9.0,47,0.00,,,0.00,,2013-07-12 23:03:00,
2013-07-12 19:13:00,81.0,59.0,30.07,ENE,67,3.0,9.0,47,0.00,,,0.00,,2013-07-12 23:13:00,
2013-07-12 19:34:00,80.0,59.0,30.06,East,85,4.0,8.0,48,0.00,,,0.00,,2013-07-12 23:34:00,
2013-07-12 19:43:00,80.0,59.0,30.06,East,85,4.0,8.0,48,0.00,,,0.00,,2013-07-12 23:43:00,
2013-07-12 19:58:00,79.0,59.0,30.06,East,80,2.0,10.0,50,0.00,,,0.00,,2013-07-12 23:58:00,
2013-07-12 20:17:00,79.0,59.0,30.06,ENE,70,2.0,9.0,50,0.00,,,0.00,,2013-07-13 00:17:00,
2013-07-12 20:25:00,79.0,60.0,30.06,SE,130,2.0,5.0,52,0.00,,,0.00,,2013-07-13 00:25:00,
2013-07-12 20:33:00,79.0,60.0,30.07,East,92,2.0,5.0,52,0.00,,,0.00,,2013-07-13 00:33:00,
2013-07-12 20:46:00,79.0,60.0,30.07,East,92,2.0,5.0,52,0.00,,,0.00,,2013-07-13 00:46:00,
2013-07-12 20:56:00,78.0,60.0,30.07,ENE,75,2.0,5.0,54,0.00,,,0.00,,2013-07-13 00:56:00,
2013-07-12 21:04:00,78.0,60.0,30.07,ENE,75,2.0,5.0,54,0.00,,,0.00,,2013-07-13 01:04:00,
2013-07-12 21:13:00,77.0,61.0,30.07,ENE,70,1.0,4.0,57,0.00,,,0.00,,2013-07-13 01:13:00,
2013-07-12 21:24:00,77.0,61.0,30.07,ENE,70,1.0,4.0,57,0.00,,,0.00,,2013-07-13 01:24:00,
2013-07-12 21:47:00,76.0,61.0,30.07,ENE,76,0.0,5.0,59,0.00,,,0.00,,2013-07-13 01:47:00,
2013-07-12 21:55:00,76.0,61.0,30.07,ENE,76,0.0,5.0,59,0.00,,,0.00,,2013-07-13 01:55:00,
2013-07-12 22:14:00,74.0,61.0,30.08,ENE,78,1.0,3.0,64,0.00,,,0.00,,2013-07-13 02:14:00,
2013-07-12 22:24:00,74.0,61.0,30.08,ENE,78,1.0,3.0,64,0.00,,,0.00,,2013-07-13 02:24:00,
2013-07-12 22:36:00,72.0,60.0,30.09,ENE,78,0.0,1.0,66,0.00,,,0.00,,2013-07-13 02:36:00,
2013-07-12 22:46:00,72.0,60.0,30.09,ENE,78,0.0,1.0,66,0.00,,,0.00,,2013-07-13 02:46:00,
2013-07-12 22:55:00,71.0,61.0,30.09,SE,138,0.0,0.0,70,0.00,,,0.00,,2013-07-13 02:55:00,
2013-07-12 23:05:00,69.0,61.0,30.10,SE,138,0.0,0.0,75,0.00,,,0.00,,2013-07-13 03:05:00,
2013-07-12 23:13:00,69.0,61.0,30.10,SE,138,0.0,0.0,75,0.00,,,0.00,,2013-07-13 03:13:00,
2013-07-12 23:27:00,68.0,60.0,30.10,SE,138,0.0,0.0,76,0.00,,,0.00,,2013-07-13 03:27:00,
2013-07-12 23:45:00,68.0,60.0,30.09,SE,138,0.0,0.0,76,0.00,,,0.00,,2013-07-13 03:45:00,
2013-07-12 23:57:00,67.0,60.0,30.09,SE,138,0.0,0.0,79,0.00,,,0.00,,2013-07-13 03:57:00,